sensor_id;sensor_type;location;lat;lon;timestamp;P1;durP1;ratioP1;P2;durP2;ratioP2
1320;SDS011;653;51.480;11.992;2023-08-21T00:02:16;7.80;;;6.13;;
1320;SDS011;653;51.480;11.992;2023-08-21T00:04:41;8.43;;;6.30;;
1320;SDS011;653;51.480;11.992;2023-08-21T00:07:07;8.70;;;7.00;;
1320;SDS011;653;51.480;11.992;2023-08-21T00:09:34;9.43;;;6.57;;
1320;SDS011;653;51.480;11.992;2023-08-21T00:11:59;7.03;;;6.30;;
1320;SDS011;653;51.480;11.992;2023-08-21T00:14:25;7.70;;;6.47;;
1320;SDS011;653;51.480;11.992;2023-08-21T00:16:50;8.00;;;6.40;;
1320;SDS011;653;51.480;11.992;2023-08-21T00:19:15;7.30;;;5.77;;
1320;SDS011;653;51.480;11.992;2023-08-21T00:21:41;10.90;;;6.20;;
1320;SDS011;653;51.480;11.992;2023-08-21T00:24:07;8.90;;;5.50;;
1320;SDS011;653;51.480;11.992;2023-08-21T00:26:32;7.57;;;5.17;;
1320;SDS011;653;51.480;11.992;2023-08-21T00:28:58;7.30;;;6.00;;
1320;SDS011;653;51.480;11.992;2023-08-21T00:31:23;12.10;;;6.10;;
1320;SDS011;653;51.480;11.992;2023-08-21T00:33:48;14.43;;;7.33;;
1320;SDS011;653;51.480;11.992;2023-08-21T00:36:16;7.13;;;6.53;;
1320;SDS011;653;51.480;11.992;2023-08-21T00:38:47;9.00;;;7.63;;
1320;SDS011;653;51.480;11.992;2023-08-21T00:41:20;7.23;;;6.23;;
1320;SDS011;653;51.480;11.992;2023-08-21T00:43:46;7.83;;;6.90;;
1320;SDS011;653;51.480;11.992;2023-08-21T00:46:11;7.30;;;6.60;;
1320;SDS011;653;51.480;11.992;2023-08-21T00:48:37;8.57;;;7.33;;
1320;SDS011;653;51.480;11.992;2023-08-21T00:51:03;9.70;;;6.67;;
1320;SDS011;653;51.480;11.992;2023-08-21T00:53:28;8.63;;;7.53;;
1320;SDS011;653;51.480;11.992;2023-08-21T00:55:54;9.83;;;6.20;;
1320;SDS011;653;51.480;11.992;2023-08-21T00:58:19;8.80;;;6.60;;
1320;SDS011;653;51.480;11.992;2023-08-21T01:00:45;12.80;;;6.67;;
1320;SDS011;653;51.480;11.992;2023-08-21T01:03:12;7.50;;;6.73;;
1320;SDS011;653;51.480;11.992;2023-08-21T01:05:38;8.10;;;6.60;;
1320;SDS011;653;51.480;11.992;2023-08-21T01:08:14;10.90;;;6.50;;
1320;SDS011;653;51.480;11.992;2023-08-21T01:15:45;11.00;;;7.57;;
1320;SDS011;653;51.480;11.992;2023-08-21T01:18:11;9.87;;;6.47;;
1320;SDS011;653;51.480;11.992;2023-08-21T01:20:36;9.70;;;7.03;;
1320;SDS011;653;51.480;11.992;2023-08-21T01:23:03;10.27;;;8.10;;
1320;SDS011;653;51.480;11.992;2023-08-21T01:25:30;8.67;;;7.77;;
1320;SDS011;653;51.480;11.992;2023-08-21T01:27:56;9.13;;;8.10;;
1320;SDS011;653;51.480;11.992;2023-08-21T01:30:21;9.33;;;7.23;;
1320;SDS011;653;51.480;11.992;2023-08-21T01:33:06;9.13;;;7.27;;
1320;SDS011;653;51.480;11.992;2023-08-21T01:35:36;9.70;;;6.97;;
1320;SDS011;653;51.480;11.992;2023-08-21T01:38:02;11.27;;;7.20;;
1320;SDS011;653;51.480;11.992;2023-08-21T01:40:28;9.60;;;6.90;;
1320;SDS011;653;51.480;11.992;2023-08-21T01:42:53;12.77;;;7.83;;
1320;SDS011;653;51.480;11.992;2023-08-21T01:45:19;7.50;;;6.70;;
1320;SDS011;653;51.480;11.992;2023-08-21T01:47:44;8.87;;;7.40;;
1320;SDS011;653;51.480;11.992;2023-08-21T01:50:10;7.10;;;6.50;;
1320;SDS011;653;51.480;11.992;2023-08-21T01:52:35;7.10;;;5.90;;
1320;SDS011;653;51.480;11.992;2023-08-21T01:55:01;9.10;;;6.40;;
1320;SDS011;653;51.480;11.992;2023-08-21T01:57:26;8.63;;;7.20;;
1320;SDS011;653;51.480;11.992;2023-08-21T01:59:51;8.43;;;7.20;;
1320;SDS011;653;51.480;11.992;2023-08-21T02:02:17;9.90;;;6.27;;
1320;SDS011;653;51.480;11.992;2023-08-21T02:04:42;9.40;;;7.23;;
1320;SDS011;653;51.480;11.992;2023-08-21T02:07:07;8.03;;;7.33;;
1320;SDS011;653;51.480;11.992;2023-08-21T02:09:33;10.47;;;7.10;;
1320;SDS011;653;51.480;11.992;2023-08-21T02:11:58;7.67;;;6.83;;
1320;SDS011;653;51.480;11.992;2023-08-21T02:14:24;9.87;;;7.17;;
1320;SDS011;653;51.480;11.992;2023-08-21T02:16:49;11.50;;;7.40;;
1320;SDS011;653;51.480;11.992;2023-08-21T02:19:14;8.93;;;7.97;;
1320;SDS011;653;51.480;11.992;2023-08-21T02:21:40;9.17;;;7.60;;
1320;SDS011;653;51.480;11.992;2023-08-21T02:24:05;12.73;;;7.90;;
1320;SDS011;653;51.480;11.992;2023-08-21T02:26:31;9.03;;;6.70;;
1320;SDS011;653;51.480;11.992;2023-08-21T02:28:56;6.63;;;5.93;;
1320;SDS011;653;51.480;11.992;2023-08-21T02:31:22;10.20;;;7.57;;
1320;SDS011;653;51.480;11.992;2023-08-21T02:33:48;7.27;;;6.47;;
1320;SDS011;653;51.480;11.992;2023-08-21T02:36:15;8.13;;;7.30;;
1320;SDS011;653;51.480;11.992;2023-08-21T02:38:40;8.60;;;6.90;;
1320;SDS011;653;51.480;11.992;2023-08-21T02:41:06;7.90;;;7.10;;
1320;SDS011;653;51.480;11.992;2023-08-21T02:43:31;7.80;;;7.00;;
1320;SDS011;653;51.480;11.992;2023-08-21T02:45:57;8.50;;;7.10;;
1320;SDS011;653;51.480;11.992;2023-08-21T02:48:22;10.77;;;8.20;;
1320;SDS011;653;51.480;11.992;2023-08-21T02:50:48;8.40;;;7.40;;
1320;SDS011;653;51.480;11.992;2023-08-21T02:53:13;8.97;;;8.07;;
1320;SDS011;653;51.480;11.992;2023-08-21T02:55:39;9.50;;;8.00;;
1320;SDS011;653;51.480;11.992;2023-08-21T02:58:04;8.77;;;7.70;;
1320;SDS011;653;51.480;11.992;2023-08-21T03:00:29;8.50;;;7.30;;
1320;SDS011;653;51.480;11.992;2023-08-21T03:02:55;10.77;;;7.70;;
1320;SDS011;653;51.480;11.992;2023-08-21T03:05:20;11.07;;;8.43;;
1320;SDS011;653;51.480;11.992;2023-08-21T03:07:45;9.03;;;8.13;;
1320;SDS011;653;51.480;11.992;2023-08-21T03:10:11;8.53;;;7.80;;
1320;SDS011;653;51.480;11.992;2023-08-21T03:12:36;9.43;;;7.60;;
1320;SDS011;653;51.480;11.992;2023-08-21T03:15:02;13.27;;;8.33;;
1320;SDS011;653;51.480;11.992;2023-08-21T03:17:28;9.60;;;8.70;;
1320;SDS011;653;51.480;11.992;2023-08-21T03:19:53;11.63;;;8.40;;
1320;SDS011;653;51.480;11.992;2023-08-21T03:22:18;9.10;;;8.20;;
1320;SDS011;653;51.480;11.992;2023-08-21T03:24:44;9.97;;;8.33;;
1320;SDS011;653;51.480;11.992;2023-08-21T03:27:09;10.40;;;9.30;;
1320;SDS011;653;51.480;11.992;2023-08-21T03:29:34;9.50;;;8.60;;
1320;SDS011;653;51.480;11.992;2023-08-21T03:32:00;15.80;;;9.70;;
1320;SDS011;653;51.480;11.992;2023-08-21T03:34:25;10.47;;;9.37;;
1320;SDS011;653;51.480;11.992;2023-08-21T03:36:51;13.83;;;9.60;;
1320;SDS011;653;51.480;11.992;2023-08-21T03:39:16;10.30;;;8.90;;
1320;SDS011;653;51.480;11.992;2023-08-21T03:41:41;15.37;;;10.57;;
1320;SDS011;653;51.480;11.992;2023-08-21T03:44:07;13.80;;;9.77;;
1320;SDS011;653;51.480;11.992;2023-08-21T03:46:32;11.67;;;9.00;;
1320;SDS011;653;51.480;11.992;2023-08-21T03:48:58;10.53;;;9.13;;
1320;SDS011;653;51.480;11.992;2023-08-21T03:51:23;11.70;;;10.20;;
1320;SDS011;653;51.480;11.992;2023-08-21T03:53:49;11.37;;;10.13;;
1320;SDS011;653;51.480;11.992;2023-08-21T03:56:14;10.87;;;9.77;;
1320;SDS011;653;51.480;11.992;2023-08-21T03:58:40;12.00;;;10.80;;
1320;SDS011;653;51.480;11.992;2023-08-21T04:01:05;15.33;;;10.67;;
1320;SDS011;653;51.480;11.992;2023-08-21T04:03:30;11.33;;;9.43;;
1320;SDS011;653;51.480;11.992;2023-08-21T04:05:56;13.30;;;10.20;;
1320;SDS011;653;51.480;11.992;2023-08-21T04:08:28;11.37;;;9.43;;
1320;SDS011;653;51.480;11.992;2023-08-21T04:10:54;10.63;;;9.53;;
1320;SDS011;653;51.480;11.992;2023-08-21T04:13:24;11.00;;;9.97;;
1320;SDS011;653;51.480;11.992;2023-08-21T04:15:58;13.67;;;9.50;;
1320;SDS011;653;51.480;11.992;2023-08-21T04:18:24;12.13;;;9.03;;
1320;SDS011;653;51.480;11.992;2023-08-21T04:20:51;10.93;;;9.73;;
1320;SDS011;653;51.480;11.992;2023-08-21T04:23:20;14.43;;;10.40;;
1320;SDS011;653;51.480;11.992;2023-08-21T04:25:45;15.67;;;9.90;;
1320;SDS011;653;51.480;11.992;2023-08-21T04:28:11;11.37;;;9.00;;
1320;SDS011;653;51.480;11.992;2023-08-21T04:30:37;10.53;;;9.53;;
1320;SDS011;653;51.480;11.992;2023-08-21T04:33:05;10.13;;;9.13;;
1320;SDS011;653;51.480;11.992;2023-08-21T04:35:35;14.80;;;10.10;;
1320;SDS011;653;51.480;11.992;2023-08-21T04:38:02;13.60;;;9.87;;
1320;SDS011;653;51.480;11.992;2023-08-21T04:40:27;13.80;;;9.87;;
1320;SDS011;653;51.480;11.992;2023-08-21T04:42:52;12.63;;;8.13;;
1320;SDS011;653;51.480;11.992;2023-08-21T04:45:18;10.83;;;9.60;;
1320;SDS011;653;51.480;11.992;2023-08-21T04:47:43;10.00;;;9.00;;
1320;SDS011;653;51.480;11.992;2023-08-21T04:50:08;9.47;;;8.60;;
1320;SDS011;653;51.480;11.992;2023-08-21T04:52:34;12.97;;;9.40;;
1320;SDS011;653;51.480;11.992;2023-08-21T04:54:59;10.60;;;9.60;;
1320;SDS011;653;51.480;11.992;2023-08-21T04:57:25;15.70;;;9.13;;
1320;SDS011;653;51.480;11.992;2023-08-21T04:59:50;16.40;;;8.87;;
1320;SDS011;653;51.480;11.992;2023-08-21T05:02:15;12.40;;;9.30;;
1320;SDS011;653;51.480;11.992;2023-08-21T05:04:41;12.30;;;8.47;;
1320;SDS011;653;51.480;11.992;2023-08-21T05:07:06;13.70;;;9.90;;
1320;SDS011;653;51.480;11.992;2023-08-21T05:09:32;10.07;;;8.80;;
1320;SDS011;653;51.480;11.992;2023-08-21T05:11:57;12.13;;;9.50;;
1320;SDS011;653;51.480;11.992;2023-08-21T05:14:23;11.33;;;9.40;;
1320;SDS011;653;51.480;11.992;2023-08-21T05:16:48;10.30;;;9.13;;
1320;SDS011;653;51.480;11.992;2023-08-21T05:19:14;11.90;;;8.90;;
1320;SDS011;653;51.480;11.992;2023-08-21T05:21:40;12.20;;;10.07;;
1320;SDS011;653;51.480;11.992;2023-08-21T05:24:05;10.20;;;9.20;;
1320;SDS011;653;51.480;11.992;2023-08-21T05:26:31;10.80;;;8.50;;
1320;SDS011;653;51.480;11.992;2023-08-21T05:28:56;9.73;;;8.60;;
1320;SDS011;653;51.480;11.992;2023-08-21T05:31:22;12.20;;;9.20;;
1320;SDS011;653;51.480;11.992;2023-08-21T05:33:47;9.50;;;8.60;;
1320;SDS011;653;51.480;11.992;2023-08-21T05:36:13;10.37;;;8.53;;
1320;SDS011;653;51.480;11.992;2023-08-21T05:38:38;9.03;;;8.23;;
1320;SDS011;653;51.480;11.992;2023-08-21T05:41:03;10.27;;;8.80;;
1320;SDS011;653;51.480;11.992;2023-08-21T05:43:29;10.10;;;8.77;;
1320;SDS011;653;51.480;11.992;2023-08-21T05:45:55;10.43;;;9.00;;
1320;SDS011;653;51.480;11.992;2023-08-21T05:48:21;9.90;;;8.23;;
1320;SDS011;653;51.480;11.992;2023-08-21T05:50:50;13.77;;;8.30;;
1320;SDS011;653;51.480;11.992;2023-08-21T05:53:18;7.53;;;6.83;;
1320;SDS011;653;51.480;11.992;2023-08-21T05:55:43;9.53;;;8.53;;
1320;SDS011;653;51.480;11.992;2023-08-21T05:58:09;13.53;;;7.97;;
1320;SDS011;653;51.480;11.992;2023-08-21T06:00:34;9.50;;;7.83;;
1320;SDS011;653;51.480;11.992;2023-08-21T06:03:00;9.87;;;8.63;;
1320;SDS011;653;51.480;11.992;2023-08-21T06:05:25;8.10;;;7.30;;
1320;SDS011;653;51.480;11.992;2023-08-21T06:07:51;11.33;;;8.57;;
1320;SDS011;653;51.480;11.992;2023-08-21T06:10:17;13.47;;;8.30;;
1320;SDS011;653;51.480;11.992;2023-08-21T06:12:42;7.83;;;7.00;;
1320;SDS011;653;51.480;11.992;2023-08-21T06:15:08;10.20;;;7.80;;
1320;SDS011;653;51.480;11.992;2023-08-21T06:17:35;12.53;;;8.07;;
1320;SDS011;653;51.480;11.992;2023-08-21T06:20:00;10.83;;;8.30;;
1320;SDS011;653;51.480;11.992;2023-08-21T06:22:26;12.03;;;7.70;;
1320;SDS011;653;51.480;11.992;2023-08-21T06:24:51;9.33;;;7.60;;
1320;SDS011;653;51.480;11.992;2023-08-21T06:27:17;9.13;;;7.53;;
1320;SDS011;653;51.480;11.992;2023-08-21T06:29:42;10.93;;;7.50;;
1320;SDS011;653;51.480;11.992;2023-08-21T06:32:08;9.13;;;7.50;;
1320;SDS011;653;51.480;11.992;2023-08-21T06:34:33;10.40;;;7.90;;
1320;SDS011;653;51.480;11.992;2023-08-21T06:36:59;8.03;;;6.90;;
1320;SDS011;653;51.480;11.992;2023-08-21T06:39:26;14.07;;;7.87;;
1320;SDS011;653;51.480;11.992;2023-08-21T06:41:51;12.57;;;7.80;;
1320;SDS011;653;51.480;11.992;2023-08-21T06:44:17;8.40;;;7.03;;
1320;SDS011;653;51.480;11.992;2023-08-21T06:46:42;11.60;;;7.17;;
1320;SDS011;653;51.480;11.992;2023-08-21T06:49:12;12.80;;;8.27;;
1320;SDS011;653;51.480;11.992;2023-08-21T06:51:49;12.80;;;9.30;;
1320;SDS011;653;51.480;11.992;2023-08-21T06:54:16;18.90;;;10.30;;
1320;SDS011;653;51.480;11.992;2023-08-21T06:56:44;12.57;;;9.80;;
1320;SDS011;653;51.480;11.992;2023-08-21T06:59:09;13.30;;;11.07;;
1320;SDS011;653;51.480;11.992;2023-08-21T07:01:35;12.67;;;10.10;;
1320;SDS011;653;51.480;11.992;2023-08-21T07:04:00;11.47;;;10.37;;
1320;SDS011;653;51.480;11.992;2023-08-21T07:06:29;14.90;;;11.70;;
1320;SDS011;653;51.480;11.992;2023-08-21T07:08:56;12.73;;;10.90;;
1320;SDS011;653;51.480;11.992;2023-08-21T07:11:22;14.53;;;11.70;;
1320;SDS011;653;51.480;11.992;2023-08-21T07:13:50;17.50;;;10.20;;
1320;SDS011;653;51.480;11.992;2023-08-21T07:16:17;11.90;;;10.80;;
1320;SDS011;653;51.480;11.992;2023-08-21T07:18:43;12.83;;;10.70;;
1320;SDS011;653;51.480;11.992;2023-08-21T07:21:11;12.70;;;11.40;;
1320;SDS011;653;51.480;11.992;2023-08-21T07:23:37;14.57;;;11.80;;
1320;SDS011;653;51.480;11.992;2023-08-21T07:26:03;21.47;;;12.23;;
1320;SDS011;653;51.480;11.992;2023-08-21T07:28:32;15.80;;;11.43;;
1320;SDS011;653;51.480;11.992;2023-08-21T07:30:58;15.13;;;12.30;;
1320;SDS011;653;51.480;11.992;2023-08-21T07:33:27;17.70;;;11.70;;
1320;SDS011;653;51.480;11.992;2023-08-21T07:36:05;13.80;;;11.73;;
1320;SDS011;653;51.480;11.992;2023-08-21T07:38:31;16.60;;;11.93;;
1320;SDS011;653;51.480;11.992;2023-08-21T07:43:29;13.00;;;11.70;;
1320;SDS011;653;51.480;11.992;2023-08-21T07:45:55;14.13;;;11.60;;
1320;SDS011;653;51.480;11.992;2023-08-21T07:48:20;15.77;;;10.60;;
1320;SDS011;653;51.480;11.992;2023-08-21T07:50:52;12.87;;;10.20;;
1320;SDS011;653;51.480;11.992;2023-08-21T07:53:20;13.40;;;9.57;;
1320;SDS011;653;51.480;11.992;2023-08-21T07:55:46;15.03;;;11.07;;
1320;SDS011;653;51.480;11.992;2023-08-21T07:58:11;13.57;;;10.30;;
1320;SDS011;653;51.480;11.992;2023-08-21T08:00:38;12.80;;;11.30;;
1320;SDS011;653;51.480;11.992;2023-08-21T08:03:04;11.87;;;10.77;;
1320;SDS011;653;51.480;11.992;2023-08-21T08:05:31;15.40;;;9.83;;
1320;SDS011;653;51.480;11.992;2023-08-21T08:07:56;9.60;;;8.60;;
1320;SDS011;653;51.480;11.992;2023-08-21T08:10:22;14.50;;;9.43;;
1320;SDS011;653;51.480;11.992;2023-08-21T08:12:47;11.40;;;9.60;;
1320;SDS011;653;51.480;11.992;2023-08-21T08:15:13;10.80;;;9.70;;
1320;SDS011;653;51.480;11.992;2023-08-21T08:17:38;11.97;;;9.80;;
1320;SDS011;653;51.480;11.992;2023-08-21T08:20:03;10.77;;;9.20;;
1320;SDS011;653;51.480;11.992;2023-08-21T08:22:31;10.10;;;9.10;;
1320;SDS011;653;51.480;11.992;2023-08-21T08:24:56;11.30;;;9.80;;
1320;SDS011;653;51.480;11.992;2023-08-21T08:27:22;11.67;;;8.90;;
1320;SDS011;653;51.480;11.992;2023-08-21T08:29:48;9.97;;;7.57;;
1320;SDS011;653;51.480;11.992;2023-08-21T08:32:14;9.60;;;8.60;;
1320;SDS011;653;51.480;11.992;2023-08-21T08:34:40;10.70;;;9.47;;
1320;SDS011;653;51.480;11.992;2023-08-21T08:37:05;9.10;;;8.30;;
1320;SDS011;653;51.480;11.992;2023-08-21T08:39:30;8.73;;;7.83;;
1320;SDS011;653;51.480;11.992;2023-08-21T08:42:02;11.53;;;6.83;;
1320;SDS011;653;51.480;11.992;2023-08-21T08:44:29;10.90;;;8.40;;
1320;SDS011;653;51.480;11.992;2023-08-21T08:46:55;8.17;;;7.37;;
1320;SDS011;653;51.480;11.992;2023-08-21T08:49:21;12.10;;;7.23;;
1320;SDS011;653;51.480;11.992;2023-08-21T08:51:47;8.63;;;6.70;;
1320;SDS011;653;51.480;11.992;2023-08-21T08:54:15;7.87;;;7.17;;
1320;SDS011;653;51.480;11.992;2023-08-21T08:56:41;8.73;;;6.57;;
1320;SDS011;653;51.480;11.992;2023-08-21T08:59:07;16.37;;;6.67;;
1320;SDS011;653;51.480;11.992;2023-08-21T09:01:33;7.23;;;6.50;;
1320;SDS011;653;51.480;11.992;2023-08-21T09:03:58;7.90;;;5.57;;
1320;SDS011;653;51.480;11.992;2023-08-21T09:06:23;5.90;;;5.43;;
1320;SDS011;653;51.480;11.992;2023-08-21T09:08:55;8.37;;;6.17;;
1320;SDS011;653;51.480;11.992;2023-08-21T09:11:22;7.87;;;5.93;;
1320;SDS011;653;51.480;11.992;2023-08-21T09:13:52;7.80;;;4.27;;
1320;SDS011;653;51.480;11.992;2023-08-21T09:16:19;8.00;;;4.87;;
1320;SDS011;653;51.480;11.992;2023-08-21T09:18:48;4.73;;;3.87;;
1320;SDS011;653;51.480;11.992;2023-08-21T09:21:18;4.40;;;4.00;;
1320;SDS011;653;51.480;11.992;2023-08-21T09:23:44;6.40;;;4.50;;
1320;SDS011;653;51.480;11.992;2023-08-21T09:26:11;4.63;;;4.17;;
1320;SDS011;653;51.480;11.992;2023-08-21T09:28:36;5.33;;;3.87;;
1320;SDS011;653;51.480;11.992;2023-08-21T09:31:02;5.17;;;3.87;;
1320;SDS011;653;51.480;11.992;2023-08-21T09:33:28;6.93;;;4.83;;
1320;SDS011;653;51.480;11.992;2023-08-21T09:35:54;7.33;;;4.53;;
1320;SDS011;653;51.480;11.992;2023-08-21T09:38:20;4.50;;;4.10;;
1320;SDS011;653;51.480;11.992;2023-08-21T09:40:51;5.33;;;4.00;;
1320;SDS011;653;51.480;11.992;2023-08-21T09:43:18;4.37;;;3.67;;
1320;SDS011;653;51.480;11.992;2023-08-21T09:45:49;4.67;;;4.00;;
1320;SDS011;653;51.480;11.992;2023-08-21T09:48:18;6.20;;;3.97;;
1320;SDS011;653;51.480;11.992;2023-08-21T09:50:46;5.27;;;3.90;;
1320;SDS011;653;51.480;11.992;2023-08-21T09:53:11;4.97;;;4.57;;
1320;SDS011;653;51.480;11.992;2023-08-21T09:55:37;4.70;;;3.70;;
1320;SDS011;653;51.480;11.992;2023-08-21T09:58:04;5.50;;;4.77;;
1320;SDS011;653;51.480;11.992;2023-08-21T10:00:29;5.03;;;3.87;;
1320;SDS011;653;51.480;11.992;2023-08-21T10:02:58;7.40;;;4.13;;
1320;SDS011;653;51.480;11.992;2023-08-21T10:05:27;4.23;;;3.83;;
1320;SDS011;653;51.480;11.992;2023-08-21T10:07:53;3.80;;;3.40;;
1320;SDS011;653;51.480;11.992;2023-08-21T10:10:20;6.00;;;4.47;;
1320;SDS011;653;51.480;11.992;2023-08-21T10:12:47;6.80;;;4.20;;
1320;SDS011;653;51.480;11.992;2023-08-21T10:15:13;5.77;;;3.53;;
1320;SDS011;653;51.480;11.992;2023-08-21T10:17:39;4.40;;;3.90;;
1320;SDS011;653;51.480;11.992;2023-08-21T10:20:07;4.50;;;3.83;;
1320;SDS011;653;51.480;11.992;2023-08-21T10:22:47;8.87;;;3.50;;
1320;SDS011;653;51.480;11.992;2023-08-21T10:25:21;4.53;;;3.67;;
1320;SDS011;653;51.480;11.992;2023-08-21T10:27:57;7.70;;;4.33;;
1320;SDS011;653;51.480;11.992;2023-08-21T10:30:28;4.57;;;4.17;;
1320;SDS011;653;51.480;11.992;2023-08-21T10:32:54;8.77;;;4.47;;
1320;SDS011;653;51.480;11.992;2023-08-21T10:35:22;4.57;;;4.17;;
1320;SDS011;653;51.480;11.992;2023-08-21T10:38:09;4.73;;;4.27;;
1320;SDS011;653;51.480;11.992;2023-08-21T10:40:40;5.10;;;4.60;;
1320;SDS011;653;51.480;11.992;2023-08-21T10:46:04;5.70;;;4.43;;
1320;SDS011;653;51.480;11.992;2023-08-21T10:48:30;6.63;;;4.67;;
1320;SDS011;653;51.480;11.992;2023-08-21T10:50:55;5.93;;;4.57;;
1320;SDS011;653;51.480;11.992;2023-08-21T10:53:21;5.20;;;4.67;;
1320;SDS011;653;51.480;11.992;2023-08-21T10:55:52;6.70;;;5.10;;
1320;SDS011;653;51.480;11.992;2023-08-21T10:58:21;7.47;;;5.30;;
1320;SDS011;653;51.480;11.992;2023-08-21T11:00:46;7.20;;;4.70;;
1320;SDS011;653;51.480;11.992;2023-08-21T11:03:14;4.90;;;4.50;;
1320;SDS011;653;51.480;11.992;2023-08-21T11:05:40;5.47;;;4.67;;
1320;SDS011;653;51.480;11.992;2023-08-21T11:08:06;5.30;;;4.80;;
1320;SDS011;653;51.480;11.992;2023-08-21T11:10:31;7.57;;;5.10;;
1320;SDS011;653;51.480;11.992;2023-08-21T11:12:58;5.80;;;4.73;;
1320;SDS011;653;51.480;11.992;2023-08-21T11:15:28;9.40;;;5.87;;
1320;SDS011;653;51.480;11.992;2023-08-21T11:17:54;6.23;;;5.63;;
1320;SDS011;653;51.480;11.992;2023-08-21T11:20:34;5.93;;;5.33;;
1320;SDS011;653;51.480;11.992;2023-08-21T11:23:00;5.80;;;4.90;;
1320;SDS011;653;51.480;11.992;2023-08-21T11:25:28;5.20;;;4.80;;
1320;SDS011;653;51.480;11.992;2023-08-21T11:27:55;5.73;;;5.20;;
1320;SDS011;653;51.480;11.992;2023-08-21T11:30:22;7.67;;;6.30;;
1320;SDS011;653;51.480;11.992;2023-08-21T11:32:48;6.60;;;5.57;;
1320;SDS011;653;51.480;11.992;2023-08-21T11:35:14;8.30;;;5.83;;
1320;SDS011;653;51.480;11.992;2023-08-21T11:37:43;6.70;;;5.73;;
1320;SDS011;653;51.480;11.992;2023-08-21T11:40:10;6.17;;;5.60;;
1320;SDS011;653;51.480;11.992;2023-08-21T11:42:36;6.50;;;5.90;;
1320;SDS011;653;51.480;11.992;2023-08-21T11:45:02;8.17;;;7.13;;
1320;SDS011;653;51.480;11.992;2023-08-21T11:47:34;8.10;;;5.70;;
1320;SDS011;653;51.480;11.992;2023-08-21T11:50:03;6.27;;;5.73;;
1320;SDS011;653;51.480;11.992;2023-08-21T11:52:30;6.67;;;5.97;;
1320;SDS011;653;51.480;11.992;2023-08-21T11:54:57;6.10;;;5.40;;
1320;SDS011;653;51.480;11.992;2023-08-21T11:57:25;7.60;;;7.00;;
1320;SDS011;653;51.480;11.992;2023-08-21T12:02:18;6.17;;;5.67;;
1320;SDS011;653;51.480;11.992;2023-08-21T12:04:51;9.97;;;8.97;;
1320;SDS011;653;51.480;11.992;2023-08-21T12:07:17;9.63;;;6.50;;
1320;SDS011;653;51.480;11.992;2023-08-21T12:09:46;5.80;;;5.30;;
1320;SDS011;653;51.480;11.992;2023-08-21T12:12:14;5.70;;;5.30;;
1320;SDS011;653;51.480;11.992;2023-08-21T12:14:40;6.70;;;6.03;;
1320;SDS011;653;51.480;11.992;2023-08-21T12:17:05;6.17;;;5.33;;
1320;SDS011;653;51.480;11.992;2023-08-21T12:19:31;7.47;;;5.50;;
1320;SDS011;653;51.480;11.992;2023-08-21T12:21:56;6.03;;;5.53;;
1320;SDS011;653;51.480;11.992;2023-08-21T12:24:23;6.13;;;5.53;;
1320;SDS011;653;51.480;11.992;2023-08-21T12:26:49;5.57;;;5.07;;
1320;SDS011;653;51.480;11.992;2023-08-21T12:29:14;7.73;;;5.93;;
1320;SDS011;653;51.480;11.992;2023-08-21T12:31:39;7.07;;;6.37;;
1320;SDS011;653;51.480;11.992;2023-08-21T12:34:05;6.00;;;5.50;;
1320;SDS011;653;51.480;11.992;2023-08-21T12:36:33;8.30;;;6.40;;
1320;SDS011;653;51.480;11.992;2023-08-21T12:39:00;6.03;;;5.53;;
1320;SDS011;653;51.480;11.992;2023-08-21T12:41:26;7.10;;;5.60;;
1320;SDS011;653;51.480;11.992;2023-08-21T12:43:51;6.23;;;5.63;;
1320;SDS011;653;51.480;11.992;2023-08-21T12:46:16;6.67;;;5.43;;
1320;SDS011;653;51.480;11.992;2023-08-21T12:48:42;5.77;;;5.27;;
1320;SDS011;653;51.480;11.992;2023-08-21T12:51:07;5.97;;;5.50;;
1320;SDS011;653;51.480;11.992;2023-08-21T12:53:33;5.63;;;5.23;;
1320;SDS011;653;51.480;11.992;2023-08-21T12:55:58;5.97;;;5.47;;
1320;SDS011;653;51.480;11.992;2023-08-21T12:58:24;5.60;;;5.13;;
1320;SDS011;653;51.480;11.992;2023-08-21T13:00:50;8.33;;;6.17;;
1320;SDS011;653;51.480;11.992;2023-08-21T13:03:15;6.68;;;6.18;;
1320;SDS011;653;51.480;11.992;2023-08-21T13:05:41;6.60;;;6.00;;
1320;SDS011;653;51.480;11.992;2023-08-21T13:08:06;5.80;;;5.32;;
1320;SDS011;653;51.480;11.992;2023-08-21T13:10:32;7.50;;;5.68;;
1320;SDS011;653;51.480;11.992;2023-08-21T13:12:57;7.28;;;5.70;;
1320;SDS011;653;51.480;11.992;2023-08-21T13:15:22;6.15;;;5.65;;
1320;SDS011;653;51.480;11.992;2023-08-21T13:17:48;8.02;;;6.30;;
1320;SDS011;653;51.480;11.992;2023-08-21T13:20:13;6.78;;;5.82;;
1320;SDS011;653;51.480;11.992;2023-08-21T13:22:48;6.00;;;5.40;;
1320;SDS011;653;51.480;11.992;2023-08-21T13:25:17;6.80;;;6.07;;
1320;SDS011;653;51.480;11.992;2023-08-21T13:27:43;6.03;;;5.53;;
1320;SDS011;653;51.480;11.992;2023-08-21T13:30:09;7.43;;;5.95;;
1320;SDS011;653;51.480;11.992;2023-08-21T13:32:35;6.07;;;5.57;;
1320;SDS011;653;51.480;11.992;2023-08-21T13:35:00;6.57;;;5.97;;
1320;SDS011;653;51.480;11.992;2023-08-21T13:37:26;6.25;;;5.70;;
1320;SDS011;653;51.480;11.992;2023-08-21T13:39:52;6.20;;;5.80;;
1320;SDS011;653;51.480;11.992;2023-08-21T13:42:20;7.05;;;5.78;;
1320;SDS011;653;51.480;11.992;2023-08-21T13:44:45;5.72;;;5.32;;
1320;SDS011;653;51.480;11.992;2023-08-21T13:47:11;5.88;;;5.43;;
1320;SDS011;653;51.480;11.992;2023-08-21T13:49:36;6.05;;;5.40;;
1320;SDS011;653;51.480;11.992;2023-08-21T13:52:02;5.93;;;5.43;;
1320;SDS011;653;51.480;11.992;2023-08-21T13:54:28;6.63;;;5.82;;
1320;SDS011;653;51.480;11.992;2023-08-21T13:56:54;6.05;;;5.50;;
1320;SDS011;653;51.480;11.992;2023-08-21T13:59:19;5.38;;;4.63;;
1320;SDS011;653;51.480;11.992;2023-08-21T14:01:45;6.00;;;5.50;;
1320;SDS011;653;51.480;11.992;2023-08-21T14:04:10;6.53;;;6.00;;
1320;SDS011;653;51.480;11.992;2023-08-21T14:06:36;5.85;;;5.45;;
1320;SDS011;653;51.480;11.992;2023-08-21T14:09:01;6.22;;;5.70;;
1320;SDS011;653;51.480;11.992;2023-08-21T14:11:27;5.53;;;5.13;;
1320;SDS011;653;51.480;11.992;2023-08-21T14:13:52;7.10;;;5.63;;
1320;SDS011;653;51.480;11.992;2023-08-21T14:16:17;8.55;;;6.00;;
1320;SDS011;653;51.480;11.992;2023-08-21T14:18:43;5.90;;;5.40;;
1320;SDS011;653;51.480;11.992;2023-08-21T14:21:08;7.15;;;6.43;;
1320;SDS011;653;51.480;11.992;2023-08-21T14:23:33;9.65;;;6.28;;
1320;SDS011;653;51.480;11.992;2023-08-21T14:25:59;5.35;;;4.95;;
1320;SDS011;653;51.480;11.992;2023-08-21T14:28:24;7.75;;;5.88;;
1320;SDS011;653;51.480;11.992;2023-08-21T14:30:50;5.28;;;4.75;;
1320;SDS011;653;51.480;11.992;2023-08-21T14:33:18;5.75;;;5.15;;
1320;SDS011;653;51.480;11.992;2023-08-21T14:35:44;6.40;;;5.80;;
1320;SDS011;653;51.480;11.992;2023-08-21T14:38:09;6.63;;;5.65;;
1320;SDS011;653;51.480;11.992;2023-08-21T14:40:34;5.88;;;5.38;;
1320;SDS011;653;51.480;11.992;2023-08-21T14:43:00;6.10;;;4.97;;
1320;SDS011;653;51.480;11.992;2023-08-21T14:45:25;10.30;;;5.35;;
1320;SDS011;653;51.480;11.992;2023-08-21T14:47:51;5.60;;;5.00;;
1320;SDS011;653;51.480;11.992;2023-08-21T14:50:16;7.38;;;4.80;;
1320;SDS011;653;51.480;11.992;2023-08-21T14:52:41;6.10;;;5.60;;
1320;SDS011;653;51.480;11.992;2023-08-21T14:55:07;5.75;;;4.93;;
1320;SDS011;653;51.480;11.992;2023-08-21T14:57:32;8.77;;;5.28;;
1320;SDS011;653;51.480;11.992;2023-08-21T14:59:58;5.60;;;5.18;;
1320;SDS011;653;51.480;11.992;2023-08-21T15:02:23;8.10;;;5.45;;
1320;SDS011;653;51.480;11.992;2023-08-21T15:04:48;5.30;;;4.55;;
1320;SDS011;653;51.480;11.992;2023-08-21T15:07:14;5.78;;;5.28;;
1320;SDS011;653;51.480;11.992;2023-08-21T15:09:39;6.72;;;4.82;;
1320;SDS011;653;51.480;11.992;2023-08-21T15:12:05;5.40;;;5.00;;
1320;SDS011;653;51.480;11.992;2023-08-21T15:14:30;5.20;;;4.70;;
1320;SDS011;653;51.480;11.992;2023-08-21T15:16:56;5.50;;;5.10;;
1320;SDS011;653;51.480;11.992;2023-08-21T15:19:21;5.90;;;4.90;;